Time;durP1;ratioP1;P1;durP2;ratioP2;P2;SDS_P1;SDS_P2;PMS_P1;PMS_P2;Temp;Humidity;BMP_temperature;BMP_pressure;BME280_temperature;BME280_humidity;BME280_pressure;Samples;Min_cycle;Max_cycle;Signal;HPM_P1;HPM_P2
2022/12/24 00:01:37;;;;;;;0.30;0.13;;;9.50;99.90;;;;;;5051566;28;20546;-83
2022/12/24 00:04:04;;;;;;;0.30;0.20;;;9.50;99.90;;;;;;5050428;28;20496;-83
2022/12/24 00:06:31;;;;;;;1.43;0.33;;;9.60;99.90;;;;;;5053557;28;20549;-83
2022/12/24 00:08:58;;;;;;;0.43;0.43;;;9.60;99.90;;;;;;5051778;28;20555;-83
2022/12/24 00:11:25;;;;;;;0.83;0.30;;;9.70;99.90;;;;;;5053737;28;20498;-82
2022/12/24 00:13:52;;;;;;;1.85;0.30;;;9.70;99.90;;;;;;5053133;28;20559;-83
2022/12/24 00:16:20;;;;;;;0.40;0.20;;;9.70;99.90;;;;;;5056453;28;20234;-83
2022/12/24 00:18:47;;;;;;;0.40;0.30;;;9.70;99.90;;;;;;5050690;28;20991;-83
2022/12/24 00:21:14;;;;;;;0.40;0.20;;;9.70;99.90;;;;;;5051089;28;20499;-83
2022/12/24 00:23:42;;;;;;;2.47;0.30;;;9.60;99.90;;;;;;5053924;28;20517;-82
2022/12/24 00:26:09;;;;;;;0.37;0.20;;;9.60;99.90;;;;;;5050578;28;20871;-82
2022/12/24 00:28:36;;;;;;;1.00;0.20;;;9.60;99.90;;;;;;5052310;28;20485;-82
2022/12/24 00:31:08;;;;;;;0.77;0.20;;;9.60;99.90;;;;;;5059444;28;20491;-83
2022/12/24 00:33:37;;;;;;;7.30;0.30;;;9.60;99.90;;;;;;5062517;28;20443;-83
2022/12/24 00:36:04;;;;;;;0.50;0.30;;;9.60;99.90;;;;;;5055282;28;20526;-83
2022/12/24 00:38:31;;;;;;;1.80;0.30;;;9.60;99.90;;;;;;5055897;28;20504;-82
2022/12/24 00:41:00;;;;;;;0.40;0.30;;;9.60;99.90;;;;;;5056354;28;20485;-83
2022/12/24 00:43:27;;;;;;;1.27;0.37;;;9.60;99.90;;;;;;5055320;28;20240;-82
2022/12/24 00:45:54;;;;;;;0.40;0.20;;;9.60;99.90;;;;;;5059439;28;20473;-82
2022/12/24 00:48:21;;;;;;;0.40;0.20;;;9.60;99.90;;;;;;5062505;28;20510;-83
2022/12/24 00:50:50;;;;;;;0.40;0.30;;;9.60;99.90;;;;;;5058095;28;21161;-82
2022/12/24 00:53:17;;;;;;;0.50;0.30;;;9.60;99.90;;;;;;5061984;28;20876;-83
2022/12/24 00:55:44;;;;;;;0.40;0.20;;;9.60;99.90;;;;;;5058864;28;20514;-83
2022/12/24 00:58:11;;;;;;;0.87;0.30;;;9.60;99.90;;;;;;5057906;28;20491;-82
2022/12/24 01:00:38;;;;;;;0.40;0.30;;;9.60;99.90;;;;;;5060722;28;20472;-83
2022/12/24 01:03:05;;;;;;;0.30;0.20;;;9.70;99.90;;;;;;5058672;28;20569;-82
2022/12/24 01:05:32;;;;;;;1.93;0.30;;;9.60;99.90;;;;;;5058452;28;20487;-82
2022/12/24 01:08:00;;;;;;;0.50;0.30;;;9.70;99.90;;;;;;5059278;28;20575;-82
2022/12/24 01:10:27;;;;;;;0.60;0.30;;;9.70;99.90;;;;;;5064028;28;20480;-81
2022/12/24 01:12:54;;;;;;;1.10;0.30;;;9.80;99.90;;;;;;5064057;28;20443;-82
2022/12/24 01:15:21;;;;;;;0.43;0.30;;;9.80;99.90;;;;;;5060502;28;20617;-82
2022/12/24 01:17:47;;;;;;;0.30;0.20;;;9.80;99.90;;;;;;5053694;28;20513;-82
2022/12/24 01:20:17;;;;;;;0.40;0.20;;;9.70;99.90;;;;;;5062393;28;20471;-82
2022/12/24 01:22:44;;;;;;;0.50;0.30;;;9.70;99.90;;;;;;5061842;28;21006;-82
2022/12/24 01:25:12;;;;;;;4.17;0.40;;;9.70;99.90;;;;;;5055762;28;20864;-82
2022/12/24 01:27:39;;;;;;;0.37;0.20;;;9.70;99.90;;;;;;5058463;28;20911;-82
2022/12/24 01:30:08;;;;;;;0.47;0.30;;;9.70;99.90;;;;;;5055019;28;20896;-82
2022/12/24 01:32:35;;;;;;;0.70;0.40;;;9.70;99.90;;;;;;5060685;28;20552;-82
2022/12/24 01:35:02;;;;;;;0.40;0.20;;;9.60;99.90;;;;;;5058231;28;20487;-82
2022/12/24 01:37:29;;;;;;;0.50;0.30;;;9.60;99.90;;;;;;5056419;28;20552;-82
2022/12/24 01:43:22;;;;;;;0.40;0.30;;;9.50;99.90;;;;;;5060716;28;20544;-82
2022/12/24 01:45:50;;;;;;;0.43;0.30;;;9.60;99.90;;;;;;5061658;28;20345;-82
2022/12/24 01:48:27;;;;;;;0.40;0.30;;;9.60;99.90;;;;;;5061282;28;20498;-82
2022/12/24 01:50:58;;;;;;;0.63;0.40;;;9.60;99.90;;;;;;5057799;28;20494;-82
2022/12/24 01:53:25;;;;;;;0.40;0.20;;;9.60;99.90;;;;;;5055785;28;20483;-82
2022/12/24 01:55:53;;;;;;;0.40;0.30;;;9.70;99.90;;;;;;5059538;28;20499;-82
2022/12/24 01:58:24;;;;;;;0.60;0.30;;;9.70;99.90;;;;;;5055633;28;20449;-82
2022/12/24 02:00:51;;;;;;;0.30;0.20;;;9.80;99.90;;;;;;5056916;28;20533;-82
2022/12/24 02:03:19;;;;;;;0.40;0.20;;;9.90;99.90;;;;;;5056342;28;20952;-83
2022/12/24 02:05:48;;;;;;;0.40;0.30;;;9.90;99.90;;;;;;5056156;28;20464;-82
2022/12/24 02:08:16;;;;;;;0.40;0.23;;;9.80;99.90;;;;;;5058108;28;20492;-82
2022/12/24 02:10:43;;;;;;;0.40;0.30;;;9.80;99.90;;;;;;5056552;28;20495;-82
2022/12/24 02:13:10;;;;;;;0.40;0.20;;;9.90;99.90;;;;;;5057038;28;20491;-82
2022/12/24 02:15:59;;;;;;;1.53;0.33;;;9.90;99.90;;;;;;5059042;28;20448;-82
2022/12/24 02:18:33;;;;;;;2.30;0.40;;;9.90;99.90;;;;;;5058285;28;20871;-82
2022/12/24 02:21:30;;;;;;;0.77;0.30;;;9.90;99.90;;;;;;5058303;28;20487;-82
2022/12/24 02:24:25;;;;;;;0.40;0.20;;;9.90;99.90;;;;;;5049167;28;20498;-82
2022/12/24 02:27:14;;;;;;;0.50;0.40;;;9.80;99.90;;;;;;5057700;28;20290;-82
2022/12/24 02:30:11;;;;;;;0.30;0.20;;;9.90;99.90;;;;;;5054730;28;20971;-82
2022/12/24 02:32:49;;;;;;;0.30;0.20;;;9.90;99.90;;;;;;5046065;28;20454;-82
2022/12/24 02:35:21;;;;;;;0.40;0.20;;;9.80;99.90;;;;;;5057757;28;20509;-82
2022/12/24 02:37:52;;;;;;;2.20;0.40;;;9.80;99.90;;;;;;5052250;28;20526;-82
2022/12/24 02:40:25;;;;;;;0.40;0.20;;;9.80;99.90;;;;;;5058494;28;20938;-82
2022/12/24 02:43:00;;;;;;;1.17;0.30;;;9.80;99.90;;;;;;5056110;28;20511;-82
2022/12/24 02:45:32;;;;;;;1.20;0.23;;;9.70;99.90;;;;;;5059056;28;20505;-82
2022/12/24 02:48:00;;;;;;;0.40;0.30;;;9.70;99.90;;;;;;5056472;28;20487;-82
2022/12/24 02:50:27;;;;;;;0.40;0.20;;;9.80;99.90;;;;;;5058780;28;20525;-82
2022/12/24 02:52:54;;;;;;;1.07;0.30;;;9.80;99.90;;;;;;5058714;28;20237;-82
2022/12/24 02:55:25;;;;;;;0.40;0.20;;;9.80;99.90;;;;;;5059692;28;20521;-82
2022/12/24 02:58:12;;;;;;;2.83;0.30;;;9.80;99.90;;;;;;5053119;28;20494;-82
2022/12/24 03:00:54;;;;;;;0.50;0.30;;;9.90;99.90;;;;;;5058308;28;20922;-82
2022/12/24 03:03:35;;;;;;;0.40;0.20;;;9.90;99.90;;;;;;5058476;28;20597;-82
2022/12/24 03:06:11;;;;;;;0.40;0.30;;;9.90;99.90;;;;;;5058583;28;20460;-82
2022/12/24 03:08:45;;;;;;;2.23;0.30;;;10.00;99.90;;;;;;5062389;28;20472;-82
2022/12/24 03:11:14;;;;;;;0.70;0.33;;;10.00;99.90;;;;;;5052862;28;20560;-82
2022/12/24 03:13:42;;;;;;;0.50;0.30;;;10.00;99.90;;;;;;5059794;28;20763;-82
2022/12/24 03:16:14;;;;;;;0.60;0.40;;;9.90;99.90;;;;;;5054706;28;20904;-82
2022/12/24 03:18:44;;;;;;;0.40;0.30;;;9.90;99.90;;;;;;5054857;28;20599;-82
2022/12/24 03:21:14;;;;;;;1.57;0.30;;;9.90;99.90;;;;;;5062261;28;20824;-82
2022/12/24 03:23:41;;;;;;;0.40;0.30;;;9.80;99.90;;;;;;5070159;28;20564;-82
2022/12/24 03:26:10;;;;;;;1.40;0.30;;;9.80;99.90;;;;;;5062046;28;20536;-82
2022/12/24 03:28:38;;;;;;;0.40;0.30;;;9.70;99.90;;;;;;5059290;28;20507;-83
2022/12/24 03:31:07;;;;;;;1.30;0.40;;;9.70;99.90;;;;;;5061902;28;20490;-82
2022/12/24 03:33:36;;;;;;;0.40;0.30;;;9.60;99.90;;;;;;5059519;28;20564;-82
2022/12/24 03:36:05;;;;;;;0.37;0.23;;;9.60;99.90;;;;;;5060407;28;20456;-82
2022/12/24 03:38:32;;;;;;;0.50;0.30;;;9.50;99.90;;;;;;5059009;28;20487;-82
2022/12/24 03:41:00;;;;;;;0.33;0.20;;;9.50;99.90;;;;;;5062495;28;20472;-82
2022/12/24 03:43:26;;;;;;;1.60;0.30;;;9.40;99.90;;;;;;5063991;28;20526;-82
2022/12/24 03:45:53;;;;;;;1.70;0.30;;;9.40;99.90;;;;;;5060734;28;20539;-82
2022/12/24 03:48:20;;;;;;;1.27;0.30;;;9.40;99.90;;;;;;5059606;28;20537;-82
2022/12/24 03:50:49;;;;;;;0.50;0.40;;;9.40;99.90;;;;;;5056479;28;20480;-82
2022/12/24 03:53:15;;;;;;;0.40;0.30;;;9.30;99.90;;;;;;5060425;28;20472;-82
2022/12/24 03:55:42;;;;;;;0.40;0.20;;;9.30;99.90;;;;;;5061656;28;20503;-82
2022/12/24 03:58:09;;;;;;;2.60;0.40;;;9.20;99.90;;;;;;5054250;28;20475;-82
2022/12/24 04:00:36;;;;;;;3.13;0.43;;;9.20;99.90;;;;;;5060065;28;20492;-82
2022/12/24 04:03:04;;;;;;;0.50;0.30;;;9.10;99.90;;;;;;5062611;28;20948;-82
2022/12/24 04:05:30;;;;;;;0.80;0.33;;;9.20;99.90;;;;;;5062390;28;20715;-82
2022/12/24 04:07:59;;;;;;;0.50;0.40;;;9.20;99.90;;;;;;5058575;28;20859;-82
2022/12/24 04:10:26;;;;;;;0.40;0.30;;;9.30;99.90;;;;;;5064102;28;20533;-82
2022/12/24 04:12:53;;;;;;;0.50;0.40;;;9.30;99.90;;;;;;5062085;28;20561;-83
2022/12/24 04:15:19;;;;;;;0.50;0.30;;;9.30;99.90;;;;;;5055467;28;20245;-82
2022/12/24 04:17:46;;;;;;;1.30;0.60;;;9.30;99.90;;;;;;5054287;28;20536;-82
2022/12/24 04:20:13;;;;;;;2.60;0.40;;;9.20;99.90;;;;;;5059594;28;20482;-82
2022/12/24 04:22:40;;;;;;;3.53;0.37;;;9.20;99.90;;;;;;5058958;28;20904;-83
2022/12/24 04:25:10;;;;;;;2.30;0.30;;;9.30;99.90;;;;;;5056072;28;20512;-83
2022/12/24 04:27:37;;;;;;;0.60;0.40;;;9.30;99.90;;;;;;5059687;28;20475;-82
2022/12/24 04:30:05;;;;;;;2.30;0.70;;;9.30;99.90;;;;;;5059250;28;20336;-83
2022/12/24 04:32:32;;;;;;;1.43;0.33;;;9.40;99.90;;;;;;5055860;28;20498;-82
2022/12/24 04:34:59;;;;;;;2.50;0.40;;;9.40;99.90;;;;;;5061331;28;20688;-82
2022/12/24 04:37:26;;;;;;;1.27;0.43;;;9.40;99.90;;;;;;5058120;28;20754;-83
2022/12/24 04:39:53;;;;;;;0.47;0.40;;;9.40;99.90;;;;;;5062243;28;20483;-82
2022/12/24 04:42:21;;;;;;;0.50;0.40;;;9.60;99.90;;;;;;5062220;28;20455;-82
2022/12/24 04:44:48;;;;;;;3.90;0.43;;;9.70;99.90;;;;;;5059431;28;20527;-83
2022/12/24 04:47:15;;;;;;;1.03;0.30;;;9.20;99.90;;;;;;5058192;28;20488;-82
2022/12/24 04:49:42;;;;;;;1.00;0.50;;;8.80;99.90;;;;;;5059639;28;20492;-82
2022/12/24 04:52:09;;;;;;;0.40;0.33;;;8.50;99.90;;;;;;5057967;28;20506;-82
2022/12/24 04:54:36;;;;;;;2.10;0.40;;;8.30;99.90;;;;;;5062534;28;20585;-82
2022/12/24 04:57:03;;;;;;;1.57;0.40;;;8.00;99.90;;;;;;5056738;28;20575;-82
2022/12/24 04:59:31;;;;;;;1.57;0.47;;;7.80;99.90;;;;;;5059117;28;20497;-82
2022/12/24 05:01:58;;;;;;;1.00;0.47;;;7.70;99.90;;;;;;5054747;28;20506;-82
2022/12/24 05:04:25;;;;;;;1.07;0.50;;;7.60;99.90;;;;;;5058972;28;21234;-82
2022/12/24 05:06:52;;;;;;;2.10;0.90;;;7.60;99.90;;;;;;5059104;28;20491;-82
2022/12/24 05:09:18;;;;;;;1.60;0.30;;;7.70;99.90;;;;;;5060998;28;20754;-81
2022/12/24 05:11:45;;;;;;;1.30;0.40;;;7.70;99.90;;;;;;5062552;28;20487;-80
2022/12/24 05:14:12;;;;;;;1.53;0.43;;;7.70;99.90;;;;;;5052554;28;20466;-80
2022/12/24 05:16:40;;;;;;;0.50;0.40;;;7.70;99.90;;;;;;5055261;28;20491;-81
2022/12/24 05:19:07;;;;;;;0.60;0.40;;;7.70;99.90;;;;;;5059977;28;20477;-81
2022/12/24 05:21:34;;;;;;;0.70;0.30;;;7.70;99.90;;;;;;5063295;28;20475;-81
2022/12/24 05:26:48;;;;;;;2.83;0.30;;;7.60;99.90;;;;;;5058203;28;20435;-81
2022/12/24 05:29:16;;;;;;;0.50;0.40;;;7.60;99.90;;;;;;5054423;28;20511;-81
2022/12/24 05:31:45;;;;;;;2.30;0.30;;;7.60;99.90;;;;;;5063561;28;20503;-81
2022/12/24 05:34:13;;;;;;;0.50;0.30;;;7.60;99.90;;;;;;5061883;28;20485;-81
2022/12/24 05:36:40;;;;;;;0.40;0.20;;;7.60;99.90;;;;;;5059624;28;20949;-81
2022/12/24 05:39:08;;;;;;;0.40;0.30;;;7.60;99.90;;;;;;5056832;28;20478;-82
2022/12/24 05:41:35;;;;;;;0.50;0.30;;;7.60;99.90;;;;;;5063474;28;20810;-81
2022/12/24 05:44:02;;;;;;;1.57;0.40;;;7.60;99.90;;;;;;5056741;28;20801;-82
2022/12/24 05:46:29;;;;;;;1.33;0.30;;;7.70;99.90;;;;;;5059836;28;20490;-81
2022/12/24 05:48:57;;;;;;;1.03;0.30;;;7.60;99.90;;;;;;5052738;28;20834;-81
2022/12/24 05:51:24;;;;;;;0.50;0.40;;;7.70;99.90;;;;;;5059487;28;20862;-81
2022/12/24 05:53:52;;;;;;;0.30;0.23;;;7.70;99.90;;;;;;5059676;28;20494;-81
2022/12/24 05:56:21;;;;;;;0.33;0.30;;;7.70;99.90;;;;;;5060733;28;21039;-81
2022/12/24 05:58:48;;;;;;;0.50;0.30;;;7.70;99.90;;;;;;5055824;28;20542;-81
2022/12/24 06:01:15;;;;;;;0.40;0.37;;;7.70;99.90;;;;;;5059344;28;20486;-81
2022/12/24 06:03:42;;;;;;;0.40;0.30;;;7.70;99.90;;;;;;5054474;28;20897;-81
2022/12/24 06:06:12;;;;;;;0.50;0.30;;;7.70;99.90;;;;;;5056470;28;20440;-81
2022/12/24 06:08:41;;;;;;;7.63;3.90;;;7.60;99.90;;;;;;5055517;28;20511;-82
2022/12/24 06:11:12;;;;;;;20.27;9.70;;;7.60;99.90;;;;;;5047119;28;20931;-86
2022/12/24 06:13:39;;;;;;;5.13;3.93;;;7.60;99.90;;;;;;5053860;28;20821;-83
2022/12/24 06:16:08;;;;;;;1.83;1.30;;;7.60;99.90;;;;;;5044762;28;20555;-84
2022/12/24 06:18:36;;;;;;;0.90;0.70;;;7.60;99.90;;;;;;5053742;28;20240;-81
2022/12/24 06:21:04;;;;;;;0.50;0.40;;;7.60;99.90;;;;;;5050293;28;20520;-82
2022/12/24 06:23:34;;;;;;;1.90;0.30;;;7.60;99.90;;;;;;5053534;28;20592;-81
2022/12/24 06:26:02;;;;;;;0.40;0.30;;;7.60;99.90;;;;;;5054913;28;20834;-83
2022/12/24 06:28:29;;;;;;;0.50;0.40;;;7.70;99.90;;;;;;5056363;28;20907;-84
2022/12/24 06:30:57;;;;;;;0.40;0.30;;;7.90;99.90;;;;;;5045370;28;20517;-85
2022/12/24 06:33:24;;;;;;;0.80;0.40;;;7.90;99.90;;;;;;5052460;28;20465;-84
2022/12/24 06:35:51;;;;;;;0.63;0.40;;;7.80;99.90;;;;;;5054280;28;20616;-85
2022/12/24 06:38:18;;;;;;;1.93;0.57;;;7.80;99.90;;;;;;5056908;28;21145;-85
2022/12/24 06:40:47;;;;;;;11.50;5.33;;;7.70;99.90;;;;;;5059345;28;20833;-84
2022/12/24 06:43:15;;;;;;;2.50;1.30;;;7.70;99.90;;;;;;5047293;28;20732;-85
2022/12/24 06:45:45;;;;;;;7.70;5.33;;;7.70;99.90;;;;;;5051900;28;20492;-84
2022/12/24 06:48:12;;;;;;;0.60;0.50;;;7.70;99.90;;;;;;5045233;28;20498;-84
2022/12/24 06:50:39;;;;;;;6.37;2.87;;;7.70;99.90;;;;;;5046160;28;20555;-84
2022/12/24 06:53:06;;;;;;;0.70;0.40;;;7.70;99.90;;;;;;5051279;28;20557;-84
2022/12/24 06:55:33;;;;;;;2.17;1.70;;;7.70;99.90;;;;;;5050367;28;20491;-84
2022/12/24 06:58:01;;;;;;;2.97;0.50;;;7.70;99.90;;;;;;5048246;28;20496;-84
2022/12/24 07:00:28;;;;;;;2.17;0.77;;;7.70;99.90;;;;;;5049932;28;20491;-84
2022/12/24 07:02:55;;;;;;;1.73;0.90;;;7.70;99.90;;;;;;5050571;28;20488;-84
2022/12/24 07:05:22;;;;;;;1.97;0.83;;;7.80;99.90;;;;;;5061317;28;20597;-85
2022/12/24 07:07:49;;;;;;;0.83;0.77;;;7.80;99.90;;;;;;5057122;28;20587;-84
2022/12/24 07:10:17;;;;;;;2.80;1.03;;;7.80;99.90;;;;;;5056400;28;20502;-86
2022/12/24 07:12:44;;;;;;;0.57;0.43;;;7.80;99.90;;;;;;5049952;28;20959;-84
2022/12/24 07:15:13;;;;;;;1.40;0.70;;;7.80;99.90;;;;;;5054735;28;20507;-84
2022/12/24 07:17:40;;;;;;;1.37;0.40;;;7.80;99.90;;;;;;5058118;28;20478;-83
2022/12/24 07:20:11;;;;;;;0.77;0.60;;;7.80;99.90;;;;;;5047482;28;20593;-84
2022/12/24 07:22:38;;;;;;;0.70;0.50;;;7.90;99.90;;;;;;5052160;28;20467;-84
2022/12/24 07:25:06;;;;;;;0.60;0.60;;;7.90;99.90;;;;;;5048593;28;20519;-88
2022/12/24 07:27:33;;;;;;;2.17;1.77;;;7.90;99.90;;;;;;5054686;28;20541;-85
2022/12/24 07:30:00;;;;;;;1.63;0.93;;;7.90;99.90;;;;;;5055151;28;20577;-85
2022/12/24 07:32:28;;;;;;;0.80;0.80;;;7.90;99.90;;;;;;5052931;28;20469;-85
2022/12/24 07:34:55;;;;;;;2.40;0.70;;;8.00;99.90;;;;;;5056714;28;20525;-85
2022/12/24 07:37:22;;;;;;;1.47;1.07;;;8.00;99.90;;;;;;5055633;28;20560;-85
2022/12/24 07:39:49;;;;;;;3.37;1.37;;;8.00;99.90;;;;;;5057790;28;20912;-85
2022/12/24 07:42:16;;;;;;;3.50;1.23;;;7.90;99.90;;;;;;5059498;28;20459;-85
2022/12/24 07:44:43;;;;;;;4.20;0.60;;;7.90;99.90;;;;;;5060082;28;20520;-85
2022/12/24 07:47:10;;;;;;;3.05;0.63;;;8.00;99.90;;;;;;5056417;28;20533;-85
2022/12/24 07:49:38;;;;;;;4.20;1.20;;;8.00;99.90;;;;;;5053259;28;20229;-85
2022/12/24 07:52:05;;;;;;;1.95;0.80;;;8.00;99.90;;;;;;5045473;28;20881;-84
2022/12/24 07:54:32;;;;;;;4.43;0.77;;;8.00;99.90;;;;;;5052094;28;20233;-84
2022/12/24 07:56:59;;;;;;;1.63;0.70;;;8.00;99.90;;;;;;5057070;28;20855;-84
2022/12/24 07:59:27;;;;;;;4.87;1.63;;;8.00;99.90;;;;;;5049835;28;20957;-85
2022/12/24 08:01:53;;;;;;;10.33;2.07;;;8.00;99.90;;;;;;5053204;28;20545;-85
2022/12/24 08:04:20;;;;;;;4.40;0.77;;;8.00;99.90;;;;;;5047885;28;20515;-84
2022/12/24 08:06:49;;;;;;;2.13;0.93;;;8.00;99.90;;;;;;5052576;28;20533;-85
2022/12/24 08:09:16;;;;;;;0.80;0.63;;;8.00;99.90;;;;;;5046873;28;20502;-83
2022/12/24 08:11:42;;;;;;;3.23;0.93;;;8.00;99.90;;;;;;5058056;28;20486;-83
2022/12/24 08:14:09;;;;;;;1.00;0.90;;;8.10;99.90;;;;;;5061686;28;20532;-83
2022/12/24 08:16:36;;;;;;;2.67;0.63;;;8.10;99.90;;;;;;5056555;28;20492;-83
2022/12/24 08:19:03;;;;;;;5.10;1.90;;;8.10;99.90;;;;;;5059349;28;20210;-83
2022/12/24 08:21:30;;;;;;;1.47;0.80;;;8.10;99.90;;;;;;5058323;28;20487;-83
2022/12/24 08:23:58;;;;;;;3.53;0.90;;;8.10;99.90;;;;;;5059826;28;20483;-83
2022/12/24 08:26:25;;;;;;;1.83;0.80;;;8.10;99.90;;;;;;5060949;28;20459;-83
2022/12/24 08:28:52;;;;;;;1.53;0.70;;;8.20;99.90;;;;;;5063530;28;20483;-82
2022/12/24 08:31:19;;;;;;;3.03;1.17;;;8.20;99.90;;;;;;5053240;28;20471;-83
2022/12/24 08:33:46;;;;;;;1.20;0.50;;;8.20;99.90;;;;;;5063963;28;21071;-83
2022/12/24 08:36:13;;;;;;;3.63;1.00;;;8.30;99.90;;;;;;5060892;28;20490;-82
2022/12/24 08:38:40;;;;;;;1.27;0.80;;;8.30;99.90;;;;;;5057173;28;20525;-83
2022/12/24 08:41:08;;;;;;;2.93;0.60;;;8.40;99.90;;;;;;5060606;28;21005;-83
2022/12/24 08:43:35;;;;;;;2.40;0.70;;;8.40;99.90;;;;;;5062242;28;20489;-83
2022/12/24 08:46:04;;;;;;;4.93;1.73;;;8.50;99.90;;;;;;5060034;28;20549;-83
2022/12/24 08:48:31;;;;;;;3.60;1.57;;;8.50;99.90;;;;;;5058009;28;20460;-83
2022/12/24 08:50:57;;;;;;;2.37;1.00;;;8.50;99.90;;;;;;5059585;28;20456;-83
2022/12/24 08:53:25;;;;;;;2.00;0.73;;;8.50;99.90;;;;;;5056934;28;21047;-83
2022/12/24 08:55:52;;;;;;;2.67;1.20;;;8.60;99.90;;;;;;5059833;28;20504;-83
2022/12/24 08:58:20;;;;;;;8.33;2.60;;;8.50;99.90;;;;;;5051838;28;21697;-83
2022/12/24 09:00:47;;;;;;;4.37;0.93;;;8.60;99.90;;;;;;5057375;28;20569;-83
2022/12/24 09:03:15;;;;;;;3.43;1.53;;;8.60;99.90;;;;;;5055148;28;20460;-83
2022/12/24 09:05:42;;;;;;;2.60;1.13;;;8.60;99.90;;;;;;5055113;28;20483;-83
2022/12/24 09:08:09;;;;;;;7.50;2.17;;;8.60;99.90;;;;;;5040175;28;20496;-83
2022/12/24 09:10:36;;;;;;;3.83;1.73;;;8.50;99.90;;;;;;5045899;28;20537;-83
2022/12/24 09:13:03;;;;;;;3.80;1.60;;;8.50;99.90;;;;;;5048611;28;20552;-83
2022/12/24 09:15:31;;;;;;;8.17;4.57;;;8.50;99.90;;;;;;5053867;28;20263;-83
2022/12/24 09:17:58;;;;;;;10.23;3.40;;;8.50;99.90;;;;;;5054159;28;20917;-82
2022/12/24 09:20:25;;;;;;;12.27;3.80;;;8.60;99.90;;;;;;5051236;28;20534;-82
2022/12/24 09:22:52;;;;;;;5.53;1.53;;;8.60;99.90;;;;;;5049527;28;21183;-81
2022/12/24 09:25:19;;;;;;;6.50;1.90;;;8.70;99.90;;;;;;5047050;28;20569;-81
2022/12/24 09:27:46;;;;;;;4.77;2.30;;;8.70;99.90;;;;;;5043707;28;20946;-81
2022/12/24 09:30:14;;;;;;;2.00;0.90;;;8.80;99.90;;;;;;5043827;28;20660;-81
2022/12/24 09:32:42;;;;;;;1.27;0.40;;;8.70;99.90;;;;;;5048504;28;20867;-82
2022/12/24 09:35:09;;;;;;;1.27;0.47;;;8.70;99.90;;;;;;5049517;28;21002;-81
2022/12/24 09:37:37;;;;;;;0.60;0.60;;;8.80;99.90;;;;;;5046579;28;20570;-82
2022/12/24 09:40:06;;;;;;;0.80;0.43;;;8.70;99.90;;;;;;5053005;28;20554;-81
2022/12/24 09:42:42;;;;;;;0.70;0.40;;;8.80;99.90;;;;;;5051539;28;20452;-81
2022/12/24 09:45:18;;;;;;;1.23;0.40;;;8.80;99.90;;;;;;5048230;28;20495;-82
2022/12/24 09:47:50;;;;;;;2.30;0.50;;;8.80;99.90;;;;;;5046656;28;20470;-81
2022/12/24 09:50:39;;;;;;;2.00;0.60;;;8.80;99.90;;;;;;5048266;28;20822;-81
2022/12/24 09:53:15;;;;;;;2.00;0.63;;;8.80;99.90;;;;;;5053301;28;20456;-81
2022/12/24 09:55:46;;;;;;;0.40;0.30;;;8.80;99.90;;;;;;5054322;28;21273;-82
2022/12/24 09:58:22;;;;;;;0.50;0.40;;;8.80;99.90;;;;;;5052089;28;20464;-81
2022/12/24 10:00:51;;;;;;;0.53;0.30;;;8.80;99.90;;;;;;5057784;28;20482;-82
2022/12/24 10:03:19;;;;;;;4.63;0.90;;;8.80;99.90;;;;;;5043601;28;20935;-81
2022/12/24 10:05:55;;;;;;;0.50;0.40;;;8.80;99.90;;;;;;5043633;28;21091;-83
2022/12/24 10:08:29;;;;;;;0.70;0.30;;;8.80;99.90;;;;;;5041544;28;20484;-83
2022/12/24 10:11:07;;;;;;;0.50;0.27;;;8.70;99.90;;;;;;5042634;28;20490;-83
2022/12/24 10:13:44;;;;;;;0.60;0.30;;;8.70;99.90;;;;;;5047036;28;20492;-83
2022/12/24 10:16:18;;;;;;;0.67;0.50;;;8.70;99.90;;;;;;5047142;28;20935;-82
2022/12/24 10:18:55;;;;;;;2.27;0.40;;;8.70;99.90;;;;;;5046542;28;20471;-83
2022/12/24 10:21:32;;;;;;;1.17;0.30;;;8.80;99.90;;;;;;5051168;28;20484;-83
2022/12/24 10:24:07;;;;;;;0.90;0.40;;;8.90;99.90;;;;;;5046990;28;20927;-84
2022/12/24 10:26:40;;;;;;;1.10;0.50;;;8.90;99.90;;;;;;5053484;28;20489;-84
2022/12/24 10:29:14;;;;;;;2.57;0.50;;;8.90;99.90;;;;;;5049023;28;21188;-83
2022/12/24 10:31:56;;;;;;;0.70;0.37;;;8.80;99.90;;;;;;5050336;28;20470;-83
2022/12/24 10:34:28;;;;;;;3.90;0.70;;;8.80;99.90;;;;;;5048649;28;20471;-83
2022/12/24 10:36:55;;;;;;;3.63;0.70;;;8.70;99.90;;;;;;5050707;28;20444;-83
2022/12/24 10:39:24;;;;;;;3.83;1.60;;;8.60;99.90;;;;;;5042517;28;20495;-83
2022/12/24 10:41:54;;;;;;;2.17;0.87;;;8.70;99.90;;;;;;5048004;28;20496;-84
2022/12/24 10:44:24;;;;;;;3.37;1.30;;;8.60;99.90;;;;;;5046650;28;20484;-83
2022/12/24 10:46:51;;;;;;;1.13;0.50;;;8.60;99.90;;;;;;5051064;28;20523;-82
2022/12/24 10:49:23;;;;;;;3.40;0.80;;;8.60;99.90;;;;;;5044286;28;20492;-81
2022/12/24 10:51:56;;;;;;;4.77;0.60;;;8.60;99.90;;;;;;5052550;28;20522;-81
2022/12/24 10:54:25;;;;;;;4.50;0.70;;;8.60;99.90;;;;;;5045932;28;20464;-81
2022/12/24 10:56:57;;;;;;;1.17;0.40;;;8.60;99.90;;;;;;5050839;28;20954;-81
2022/12/24 10:59:26;;;;;;;0.73;0.40;;;8.50;99.90;;;;;;5051068;28;20494;-84
2022/12/24 11:01:55;;;;;;;3.43;0.70;;;8.50;99.90;;;;;;5047904;28;20492;-84
2022/12/24 11:04:23;;;;;;;1.37;0.60;;;8.60;99.90;;;;;;5045715;28;20526;-83
2022/12/24 11:06:56;;;;;;;1.27;0.30;;;8.60;99.90;;;;;;5051073;28;20520;-81
2022/12/24 11:09:27;;;;;;;0.50;0.30;;;8.70;99.90;;;;;;5047760;28;20992;-81
2022/12/24 11:11:56;;;;;;;0.40;0.30;;;8.80;99.90;;;;;;5058616;28;20556;-81
2022/12/24 11:14:24;;;;;;;3.00;0.60;;;8.80;99.90;;;;;;5045375;28;20467;-83
2022/12/24 11:16:55;;;;;;;2.40;0.40;;;8.80;99.90;;;;;;5045611;28;21166;-81
2022/12/24 11:19:31;;;;;;;2.00;0.50;;;8.80;99.90;;;;;;5046789;28;20549;-81
2022/12/24 11:22:05;;;;;;;0.97;0.40;;;8.70;99.90;;;;;;5048103;28;20483;-82
2022/12/24 11:24:34;;;;;;;0.40;0.40;;;8.70;99.90;;;;;;5046748;28;20490;-82
2022/12/24 11:27:24;;;;;;;0.40;0.40;;;8.70;99.90;;;;;;5049853;28;20986;-84
2022/12/24 11:29:51;;;;;;;1.10;0.53;;;8.70;99.90;;;;;;5048607;28;20590;-84
2022/12/24 11:32:21;;;;;;;0.50;0.40;;;8.80;99.90;;;;;;5052013;28;21016;-84
2022/12/24 11:34:48;;;;;;;0.70;0.57;;;8.80;99.90;;;;;;5058418;28;20972;-84
2022/12/24 11:37:20;;;;;;;1.47;0.50;;;8.80;99.90;;;;;;5053156;28;20488;-82
2022/12/24 11:39:49;;;;;;;1.30;0.40;;;8.80;99.90;;;;;;5046252;28;20502;-81
2022/12/24 11:42:26;;;;;;;2.20;0.73;;;8.90;99.90;;;;;;5045716;28;20484;-84
2022/12/24 11:44:56;;;;;;;0.53;0.50;;;8.90;99.90;;;;;;5049000;28;20556;-83
2022/12/24 11:47:33;;;;;;;0.77;0.53;;;8.90;99.90;;;;;;5052514;28;20884;-84
2022/12/24 11:50:24;;;;;;;2.47;0.50;;;8.90;99.90;;;;;;5051293;28;20590;-84
2022/12/24 11:52:59;;;;;;;2.17;0.90;;;9.00;99.90;;;;;;5050629;28;20499;-81
2022/12/24 11:55:35;;;;;;;0.80;0.60;;;9.10;99.90;;;;;;5057265;28;20479;-81
2022/12/24 11:58:07;;;;;;;1.00;0.57;;;9.00;99.90;;;;;;5053925;28;20492;-81
2022/12/24 12:00:34;;;;;;;1.80;0.77;;;9.10;99.90;;;;;;5055740;28;20456;-82
2022/12/24 12:03:02;;;;;;;2.10;0.70;;;9.20;99.90;;;;;;5052368;28;20560;-81
2022/12/24 12:05:33;;;;;;;4.80;1.10;;;9.30;99.90;;;;;;5048100;28;20538;-84
2022/12/24 12:08:09;;;;;;;3.83;3.13;;;9.30;99.90;;;;;;5057847;28;21148;-82
2022/12/24 12:10:39;;;;;;;4.47;1.57;;;9.50;99.90;;;;;;5050925;28;20475;-82
2022/12/24 12:13:12;;;;;;;2.60;1.37;;;9.50;99.90;;;;;;5051825;28;20475;-82
2022/12/24 12:15:44;;;;;;;3.67;1.40;;;9.50;99.90;;;;;;5047963;28;20452;-83
2022/12/24 12:18:15;;;;;;;1.70;1.10;;;9.60;99.90;;;;;;5050679;28;20552;-85
2022/12/24 12:20:45;;;;;;;1.13;0.80;;;9.70;99.90;;;;;;5053725;28;20472;-84
2022/12/24 12:23:20;;;;;;;2.00;1.60;;;9.90;99.90;;;;;;5052944;28;20498;-83
2022/12/24 12:25:52;;;;;;;2.13;1.47;;;9.90;99.90;;;;;;5059596;28;20490;-83
2022/12/24 12:28:23;;;;;;;1.60;1.03;;;10.00;99.90;;;;;;5049967;28;20549;-82
2022/12/24 12:31:02;;;;;;;2.30;0.97;;;10.10;99.90;;;;;;5047528;28;20496;-83
2022/12/24 12:33:33;;;;;;;1.27;0.70;;;10.20;99.90;;;;;;5045057;28;20529;-85
2022/12/24 12:36:02;;;;;;;1.97;0.80;;;10.10;99.90;;;;;;5047175;28;20487;-84
2022/12/24 12:38:31;;;;;;;0.70;0.60;;;10.20;99.90;;;;;;5044990;28;20484;-86
2022/12/24 12:41:10;;;;;;;1.50;0.90;;;10.20;99.90;;;;;;5044293;28;20569;-84
2022/12/24 12:43:54;;;;;;;1.67;0.80;;;10.10;99.90;;;;;;5049507;28;20452;-83
2022/12/24 12:46:28;;;;;;;1.13;0.70;;;9.90;99.90;;;;;;5052683;28;20573;-83
2022/12/24 12:49:07;;;;;;;4.23;1.00;;;9.80;99.90;;;;;;5051234;28;20487;-83
2022/12/24 12:51:45;;;;;;;3.33;0.60;;;9.90;99.90;;;;;;5048689;28;20514;-82
2022/12/24 12:54:45;;;;;;;1.63;0.97;;;9.90;99.90;;;;;;5051665;28;20499;-82
2022/12/24 12:57:17;;;;;;;2.50;0.70;;;10.00;99.90;;;;;;5036304;28;20468;-83
2022/12/24 12:59:49;;;;;;;1.53;1.03;;;10.10;99.90;;;;;;5048650;28;20465;-82
2022/12/24 13:02:36;;;;;;;2.20;0.93;;;10.10;99.90;;;;;;5048427;28;20995;-83
2022/12/24 13:05:39;;;;;;;4.40;1.40;;;10.10;99.90;;;;;;5046744;28;20572;-83
2022/12/24 13:08:26;;;;;;;1.20;0.60;;;10.10;99.90;;;;;;5036476;28;20495;-83
2022/12/24 13:11:04;;;;;;;1.53;0.80;;;10.10;99.90;;;;;;5049572;28;20454;-83
2022/12/24 13:14:07;;;;;;;1.83;0.97;;;10.00;99.90;;;;;;5046290;28;20499;-84
2022/12/24 13:17:08;;;;;;;3.77;0.97;;;10.00;99.90;;;;;;5051773;28;21098;-83